createdAt,value
2023-01-30T00:01:27.533Z,74.40
2023-01-30T00:03:54.484Z,74.10
2023-01-30T00:06:22.206Z,72.70
2023-01-30T00:08:49.005Z,73.40
2023-01-30T00:11:17.544Z,72.70
2023-01-30T00:13:44.346Z,73.60
2023-01-30T00:16:12.023Z,73.70
2023-01-30T00:18:42.759Z,73.10
2023-01-30T00:21:11.408Z,75.00
2023-01-30T00:23:38.555Z,74.10
2023-01-30T00:26:07.399Z,73.60
2023-01-30T00:28:34.577Z,74.70
2023-01-30T00:31:01.355Z,74.10
2023-01-30T00:33:28.775Z,74.10
2023-01-30T00:35:57.010Z,74.30
2023-01-30T00:38:24.414Z,74.70
2023-01-30T00:40:51.276Z,74.10
2023-01-30T00:43:39.124Z,73.80
2023-01-30T00:46:34.305Z,74.80
2023-01-30T00:49:01.153Z,75.20
2023-01-30T00:51:27.953Z,74.00
2023-01-30T00:53:54.757Z,74.20
2023-01-30T00:56:21.839Z,74.20
2023-01-30T00:58:48.594Z,74.60
2023-01-30T01:01:15.342Z,74.00
2023-01-30T01:03:42.917Z,74.10
2023-01-30T01:06:09.707Z,74.10
2023-01-30T01:08:36.469Z,74.20
2023-01-30T01:11:03.417Z,74.10
2023-01-30T01:13:30.222Z,74.30
2023-01-30T01:15:57.091Z,74.10
2023-01-30T01:18:24.056Z,74.00
2023-01-30T01:20:50.818Z,73.80
2023-01-30T01:23:17.654Z,74.30
2023-01-30T01:25:44.436Z,74.40
2023-01-30T01:28:12.166Z,74.50
2023-01-30T01:30:39.171Z,74.50
2023-01-30T01:33:05.914Z,74.40
2023-01-30T01:35:32.594Z,74.30
2023-01-30T01:37:59.895Z,74.40
2023-01-30T01:40:45.279Z,74.30
2023-01-30T01:43:17.342Z,73.90
2023-01-30T01:45:47.478Z,76.30
2023-01-30T01:48:34.695Z,75.50
2023-01-30T01:51:20.432Z,76.80
2023-01-30T01:53:57.219Z,76.70
2023-01-30T01:56:24.337Z,76.30
2023-01-30T01:59:00.870Z,74.50
2023-01-30T02:01:29.333Z,76.20
2023-01-30T02:04:01.927Z,75.10
2023-01-30T02:06:29.815Z,75.90
2023-01-30T02:09:02.437Z,75.20
2023-01-30T02:11:52.708Z,76.00
2023-01-30T02:14:20.723Z,76.10
2023-01-30T02:16:47.807Z,75.60
2023-01-30T02:19:40.948Z,75.10
2023-01-30T02:22:25.532Z,76.70
2023-01-30T02:25:40.175Z,76.80
2023-01-30T02:28:22.626Z,77.20
2023-01-30T02:31:28.345Z,78.10
2023-01-30T02:34:36.335Z,78.10
2023-01-30T02:37:09.997Z,79.30
2023-01-30T02:39:46.341Z,78.00
2023-01-30T02:42:32.261Z,77.90
2023-01-30T02:45:12.720Z,77.90
2023-01-30T02:47:53.458Z,78.60
2023-01-30T02:50:26.361Z,78.40
2023-01-30T02:52:54.151Z,78.60
2023-01-30T02:55:27.172Z,77.30
2023-01-30T02:57:54.526Z,79.00
2023-01-30T03:00:55.808Z,77.30
2023-01-30T03:03:34.659Z,79.00
2023-01-30T03:06:13.426Z,79.10
2023-01-30T03:09:07.494Z,78.80
2023-01-30T03:11:49.201Z,78.90
2023-01-30T03:14:26.267Z,79.00
2023-01-30T03:16:56.453Z,79.20
2023-01-30T03:19:23.487Z,78.70
2023-01-30T03:21:50.262Z,77.50
2023-01-30T03:24:18.114Z,77.30
2023-01-30T03:26:54.644Z,78.00
2023-01-30T03:29:21.646Z,80.20
2023-01-30T03:31:48.773Z,77.40
2023-01-30T03:34:15.688Z,77.40
2023-01-30T03:36:42.496Z,77.40
2023-01-30T03:39:09.355Z,77.40
2023-01-30T03:41:36.190Z,77.50
2023-01-30T03:44:03.126Z,77.50
2023-01-30T03:46:30.087Z,77.50
2023-01-30T03:48:56.914Z,77.50
2023-01-30T03:51:23.910Z,77.40
2023-01-30T03:53:50.667Z,77.40
2023-01-30T03:56:17.443Z,77.30
2023-01-30T03:58:44.395Z,77.30
2023-01-30T04:01:20.711Z,77.10
2023-01-30T04:03:48.081Z,77.30
2023-01-30T04:06:15.820Z,77.30
2023-01-30T04:08:42.713Z,77.10
2023-01-30T04:11:16.022Z,76.90
2023-01-30T04:13:42.760Z,76.70
2023-01-30T04:16:15.719Z,76.70
2023-01-30T04:19:01.271Z,78.50
2023-01-30T04:21:31.099Z,76.30
2023-01-30T04:23:58.034Z,77.20
2023-01-30T04:26:24.841Z,76.40
2023-01-30T04:28:51.790Z,76.50
2023-01-30T04:31:18.778Z,76.30
2023-01-30T04:34:17.929Z,76.00
2023-01-30T04:36:45.052Z,76.30
2023-01-30T04:39:12.584Z,76.20
2023-01-30T04:41:40.448Z,76.30
2023-01-30T04:44:07.274Z,76.20
2023-01-30T04:46:47.068Z,76.20
2023-01-30T04:49:14.590Z,76.00
2023-01-30T04:51:41.460Z,75.90
2023-01-30T04:54:08.271Z,75.90
2023-01-30T04:56:35.018Z,75.70
2023-01-30T04:59:02.257Z,75.60
2023-01-30T05:01:39.021Z,75.50
2023-01-30T05:04:07.190Z,76.50
2023-01-30T05:06:35.132Z,75.90
2023-01-30T05:09:02.056Z,75.50
2023-01-30T05:11:29.706Z,74.40
2023-01-30T05:13:56.768Z,74.90
2023-01-30T05:16:23.611Z,74.60
2023-01-30T05:18:51.012Z,74.00
2023-01-30T05:21:27.745Z,74.40
2023-01-30T05:23:55.830Z,75.60
2023-01-30T05:26:23.690Z,74.10
2023-01-30T05:28:58.113Z,73.40
2023-01-30T05:31:25.419Z,74.70
2023-01-30T05:33:52.667Z,73.00
2023-01-30T05:36:21.994Z,72.90
2023-01-30T05:38:48.785Z,73.50
2023-01-30T05:41:16.674Z,72.00
2023-01-30T05:43:44.049Z,72.40
2023-01-30T05:46:12.542Z,71.40
2023-01-30T05:48:39.586Z,71.40
2023-01-30T05:51:06.689Z,70.70
2023-01-30T05:53:35.029Z,70.40
2023-01-30T05:56:04.164Z,71.60
2023-01-30T05:58:32.033Z,70.80
2023-01-30T06:01:03.921Z,70.60
2023-01-30T06:03:30.870Z,71.70
2023-01-30T06:05:57.703Z,70.00
2023-01-30T06:08:24.701Z,69.60
2023-01-30T06:10:51.491Z,70.40
2023-01-30T06:13:18.239Z,70.00
2023-01-30T06:15:45.415Z,70.20
2023-01-30T06:18:12.107Z,70.60
2023-01-30T06:20:38.936Z,70.20
2023-01-30T06:23:05.827Z,70.30
2023-01-30T06:25:32.549Z,69.80
2023-01-30T06:27:59.244Z,69.40
2023-01-30T06:30:26.001Z,69.10
2023-01-30T06:32:52.822Z,68.80
2023-01-30T06:35:20.038Z,68.70
2023-01-30T06:37:47.104Z,68.50
2023-01-30T06:40:14.083Z,68.40
2023-01-30T06:42:48.260Z,68.50
2023-01-30T06:45:17.463Z,70.20
2023-01-30T06:47:51.980Z,69.30
2023-01-30T06:50:21.465Z,69.30
2023-01-30T06:52:50.286Z,68.80
2023-01-30T06:55:19.986Z,68.90
2023-01-30T06:57:47.827Z,70.00
2023-01-30T07:00:19.395Z,68.60
2023-01-30T07:02:47.291Z,68.50
2023-01-30T07:05:14.126Z,68.70
2023-01-30T07:07:40.866Z,68.40
2023-01-30T07:10:09.178Z,68.10
2023-01-30T07:12:36.729Z,69.10
2023-01-30T07:15:05.439Z,68.10
2023-01-30T07:17:33.060Z,68.90
2023-01-30T07:19:59.748Z,68.50
2023-01-30T07:22:26.635Z,67.90
2023-01-30T07:24:53.398Z,68.00
2023-01-30T07:27:20.480Z,67.70
2023-01-30T07:29:47.364Z,67.60
2023-01-30T07:32:19.092Z,67.50
2023-01-30T07:34:47.125Z,68.70
2023-01-30T07:37:13.968Z,68.20
2023-01-30T07:39:41.051Z,67.50
2023-01-30T07:42:08.516Z,67.30
2023-01-30T07:44:35.250Z,67.80
2023-01-30T07:47:02.153Z,66.80
2023-01-30T07:49:29.156Z,67.00
2023-01-30T07:51:55.907Z,67.10
2023-01-30T07:54:22.847Z,66.90
2023-01-30T07:56:49.585Z,67.20
2023-01-30T07:59:16.325Z,66.70
2023-01-30T08:01:43.139Z,66.70
2023-01-30T08:04:09.927Z,66.50
2023-01-30T08:06:39.147Z,66.60
2023-01-30T08:09:07.253Z,66.30
2023-01-30T08:11:34.416Z,67.30
2023-01-30T08:14:01.310Z,66.80
2023-01-30T08:16:28.110Z,66.60
2023-01-30T08:18:54.839Z,66.50
2023-01-30T08:21:21.605Z,66.50
2023-01-30T08:23:48.476Z,66.30
2023-01-30T08:26:15.400Z,66.20
2023-01-30T08:28:42.507Z,66.10
2023-01-30T08:31:11.159Z,66.20
2023-01-30T08:33:38.271Z,66.70
2023-01-30T08:36:05.863Z,65.80
2023-01-30T08:38:32.953Z,65.90
2023-01-30T08:41:00.961Z,65.10
2023-01-30T08:43:27.973Z,65.10
2023-01-30T08:45:55.626Z,64.80
2023-01-30T08:48:23.335Z,65.30
2023-01-30T08:50:54.674Z,65.50
2023-01-30T08:53:21.785Z,66.60
2023-01-30T08:55:53.105Z,64.80
2023-01-30T08:58:21.290Z,66.00
2023-01-30T09:00:49.470Z,65.20
2023-01-30T09:03:17.939Z,64.40
2023-01-30T09:05:45.070Z,64.70
2023-01-30T09:08:12.549Z,64.00
2023-01-30T09:10:40.326Z,64.80
2023-01-30T09:13:09.874Z,64.00
2023-01-30T09:15:36.628Z,65.10
2023-01-30T09:18:04.903Z,63.60
2023-01-30T09:20:31.827Z,63.70
2023-01-30T09:22:58.604Z,63.50
2023-01-30T09:25:25.464Z,63.50
2023-01-30T09:27:52.209Z,63.50
2023-01-30T09:30:19.690Z,63.70
2023-01-30T09:32:46.745Z,64.00
2023-01-30T09:35:13.628Z,63.70
2023-01-30T09:37:50.284Z,63.80
2023-01-30T09:40:28.769Z,65.60
2023-01-30T09:43:11.436Z,65.40
2023-01-30T09:45:46.856Z,64.80
2023-01-30T09:48:13.706Z,64.60
2023-01-30T09:51:04.491Z,62.80
2023-01-30T09:53:38.256Z,65.50
2023-01-30T09:56:05.642Z,65.00
2023-01-30T09:58:49.018Z,63.10
2023-01-30T10:01:37.428Z,65.10
2023-01-30T10:04:31.590Z,64.30
2023-01-30T10:07:10.329Z,65.40
2023-01-30T10:09:58.203Z,65.60
2023-01-30T10:12:56.013Z,64.50
2023-01-30T10:15:49.603Z,65.20
2023-01-30T10:18:47.829Z,65.10
2023-01-30T10:21:20.305Z,64.80
2023-01-30T10:24:48.439Z,62.10
2023-01-30T10:27:17.209Z,64.40
2023-01-30T10:29:58.045Z,63.60
2023-01-30T10:32:39.035Z,63.70
2023-01-30T10:35:19.329Z,64.10
2023-01-30T10:38:26.698Z,63.40
2023-01-30T10:41:10.451Z,63.80
2023-01-30T10:43:45.620Z,64.60
2023-01-30T10:46:15.411Z,64.00
2023-01-30T10:49:06.010Z,64.00
2023-01-30T10:51:57.382Z,63.90
2023-01-30T10:54:37.925Z,63.60
2023-01-30T10:57:25.629Z,64.20
2023-01-30T11:00:05.677Z,64.70
2023-01-30T11:02:40.786Z,64.60
2023-01-30T11:05:18.490Z,64.00
2023-01-30T11:07:48.280Z,63.60
2023-01-30T11:10:19.604Z,62.30
2023-01-30T11:12:46.725Z,61.70
2023-01-30T11:15:13.525Z,60.00
2023-01-30T11:17:45.120Z,59.80
2023-01-30T11:20:17.348Z,60.40
2023-01-30T11:22:47.282Z,61.00
2023-01-30T11:25:20.674Z,60.60
2023-01-30T11:28:01.930Z,60.90
2023-01-30T11:30:34.693Z,61.60
2023-01-30T11:33:22.335Z,60.80
2023-01-30T11:35:57.978Z,61.60
2023-01-30T11:38:30.793Z,61.30
2023-01-30T11:41:09.702Z,60.90
2023-01-30T11:43:39.602Z,60.90
2023-01-30T11:46:08.218Z,60.60
2023-01-30T11:49:05.563Z,60.60
2023-01-30T11:51:35.138Z,60.90
2023-01-30T11:54:26.934Z,60.60
2023-01-30T11:56:57.320Z,61.00
2023-01-30T11:59:44.805Z,61.10
2023-01-30T12:02:18.468Z,61.00
2023-01-30T12:04:46.827Z,60.90
2023-01-30T12:07:39.843Z,59.80
2023-01-30T12:10:25.233Z,61.20
2023-01-30T12:12:55.586Z,61.30
2023-01-30T12:15:26.555Z,59.80
2023-01-30T12:18:10.501Z,60.70
2023-01-30T12:20:55.218Z,60.40
2023-01-30T12:23:44.727Z,59.90
2023-01-30T12:26:20.601Z,60.80
2023-01-30T12:29:06.374Z,59.00
2023-01-30T12:31:43.676Z,60.60
2023-01-30T12:34:10.695Z,60.00
2023-01-30T12:37:01.572Z,57.90
2023-01-30T12:39:40.821Z,59.40
2023-01-30T12:42:28.353Z,59.30
2023-01-30T12:45:21.508Z,59.60
2023-01-30T12:47:59.949Z,59.90
2023-01-30T12:51:10.515Z,59.70
2023-01-30T12:54:01.520Z,59.80
2023-01-30T12:56:43.595Z,59.90
2023-01-30T12:59:33.026Z,59.60
2023-01-30T13:02:44.696Z,59.10
2023-01-30T13:05:26.333Z,59.80
2023-01-30T13:08:04.155Z,60.00
2023-01-30T13:10:33.950Z,58.70
2023-01-30T13:13:06.415Z,59.50
2023-01-30T13:15:53.199Z,58.90
2023-01-30T13:18:46.086Z,59.40
2023-01-30T13:21:23.581Z,59.10
2023-01-30T13:24:25.163Z,59.50
2023-01-30T13:26:53.505Z,59.70
2023-01-30T13:29:35.557Z,58.10
2023-01-30T13:32:05.968Z,59.70
2023-01-30T13:34:48.597Z,58.60
2023-01-30T13:37:19.569Z,59.30
2023-01-30T13:39:52.459Z,59.40
2023-01-30T13:42:37.928Z,59.70
2023-01-30T13:45:06.475Z,57.20
2023-01-30T13:48:03.684Z,59.30
2023-01-30T13:50:48.344Z,60.20
2023-01-30T13:53:31.190Z,59.60
2023-01-30T13:56:08.927Z,59.60
2023-01-30T13:58:55.004Z,60.10
2023-01-30T14:01:23.090Z,59.50
2023-01-30T14:03:50.647Z,57.60
2023-01-30T14:06:34.119Z,57.60
2023-01-30T14:09:05.945Z,59.30
2023-01-30T14:11:37.045Z,59.10
2023-01-30T14:14:17.855Z,58.10
2023-01-30T14:16:56.741Z,58.50
2023-01-30T14:19:34.188Z,59.80
2023-01-30T14:22:47.572Z,59.90
2023-01-30T14:25:33.695Z,59.90
2023-01-30T14:28:00.379Z,59.70
2023-01-30T14:30:45.209Z,57.70
2023-01-30T14:33:33.859Z,59.70
2023-01-30T14:36:00.521Z,60.30
2023-01-30T14:38:27.936Z,58.00
2023-01-30T14:41:00.694Z,59.00
2023-01-30T14:43:36.436Z,60.30
2023-01-30T14:46:15.345Z,57.60
2023-01-30T14:48:53.557Z,60.40
2023-01-30T14:51:35.112Z,60.60
2023-01-30T14:54:14.402Z,59.80
2023-01-30T14:56:44.304Z,60.40
2023-01-30T14:59:17.117Z,61.80
2023-01-30T15:02:13.179Z,61.30
2023-01-30T15:05:01.213Z,61.50
2023-01-30T15:07:40.112Z,60.40
2023-01-30T15:10:28.099Z,60.70
2023-01-30T15:13:38.537Z,60.60
2023-01-30T15:16:33.393Z,60.90
2023-01-30T15:19:18.868Z,60.90
2023-01-30T15:21:53.713Z,58.60
2023-01-30T15:24:57.302Z,58.50
2023-01-30T15:27:31.685Z,60.90
2023-01-30T15:30:22.926Z,58.20
2023-01-30T15:32:49.767Z,61.10
2023-01-30T15:35:16.594Z,59.20
2023-01-30T15:37:46.359Z,59.00
2023-01-30T15:40:16.016Z,61.00
2023-01-30T15:43:01.256Z,61.00
2023-01-30T15:46:04.815Z,61.80
2023-01-30T15:49:02.769Z,61.70
2023-01-30T15:51:32.017Z,61.40
2023-01-30T15:54:00.024Z,60.90
2023-01-30T15:56:31.304Z,60.30
2023-01-30T15:59:01.026Z,61.50
2023-01-30T16:01:27.807Z,61.50
2023-01-30T16:03:54.923Z,60.00
2023-01-30T16:06:33.709Z,60.00
2023-01-30T16:09:21.709Z,62.30
2023-01-30T16:11:48.636Z,61.70
2023-01-30T16:14:20.442Z,60.70
2023-01-30T16:17:00.144Z,62.00
2023-01-30T16:19:30.998Z,63.00
2023-01-30T16:22:02.130Z,63.00
2023-01-30T16:24:32.587Z,64.50
2023-01-30T16:27:02.654Z,63.30
2023-01-30T16:29:32.538Z,63.90
2023-01-30T16:31:59.864Z,64.10
2023-01-30T16:34:38.730Z,62.90
2023-01-30T16:37:08.362Z,65.30
2023-01-30T16:39:37.309Z,65.10
2023-01-30T16:42:39.526Z,64.30
2023-01-30T16:45:47.023Z,65.80
2023-01-30T16:48:16.724Z,65.40
2023-01-30T16:50:45.376Z,65.30
2023-01-30T16:53:24.254Z,64.90
2023-01-30T16:55:56.211Z,65.30
2023-01-30T16:58:24.487Z,65.50
2023-01-30T17:00:51.941Z,64.40
2023-01-30T17:03:34.077Z,64.60
2023-01-30T17:06:06.358Z,66.20
2023-01-30T17:08:33.071Z,65.30
2023-01-30T17:11:03.547Z,64.00
2023-01-30T17:13:33.052Z,66.00
2023-01-30T17:16:24.354Z,65.70
2023-01-30T17:18:56.119Z,66.50
2023-01-30T17:21:25.495Z,66.20
2023-01-30T17:24:00.349Z,65.80
2023-01-30T17:26:28.022Z,67.30
2023-01-30T17:28:54.835Z,65.00
2023-01-30T17:31:21.878Z,64.60
2023-01-30T17:33:48.747Z,64.60
2023-01-30T17:36:26.889Z,64.70
2023-01-30T17:38:54.409Z,67.00
2023-01-30T17:41:28.419Z,65.30
2023-01-30T17:43:55.198Z,66.60
2023-01-30T17:46:40.128Z,64.80
2023-01-30T17:49:11.457Z,66.60
2023-01-30T17:51:38.434Z,65.80
2023-01-30T17:54:05.233Z,65.30
2023-01-30T17:56:38.326Z,65.70
2023-01-30T17:59:16.415Z,66.90
2023-01-30T18:01:45.461Z,67.60
2023-01-30T18:04:12.311Z,66.40
2023-01-30T18:06:41.797Z,65.40
2023-01-30T18:09:18.098Z,66.50
2023-01-30T18:11:45.676Z,66.60
2023-01-30T18:14:12.411Z,66.00
2023-01-30T18:16:39.178Z,65.30
2023-01-30T18:19:08.630Z,65.20
2023-01-30T18:21:38.569Z,66.00
2023-01-30T18:24:05.991Z,66.40
2023-01-30T18:26:33.259Z,65.30
2023-01-30T18:29:00.100Z,65.70
2023-01-30T18:31:29.556Z,65.40
2023-01-30T18:33:56.833Z,67.00
2023-01-30T18:36:24.280Z,65.70
2023-01-30T18:38:51.727Z,66.40
2023-01-30T18:41:21.463Z,65.70
2023-01-30T18:43:53.408Z,67.30
2023-01-30T18:46:20.155Z,66.50
2023-01-30T18:48:47.445Z,66.30
2023-01-30T18:51:18.951Z,66.30
2023-01-30T18:53:48.612Z,65.40
2023-01-30T18:56:21.053Z,67.50
2023-01-30T18:58:52.337Z,67.40
2023-01-30T19:01:22.107Z,66.20
2023-01-30T19:03:49.445Z,67.90
2023-01-30T19:06:18.801Z,67.40
2023-01-30T19:08:46.187Z,67.20
2023-01-30T19:11:34.119Z,67.20
2023-01-30T19:14:01.329Z,67.60
2023-01-30T19:16:30.064Z,66.90
2023-01-30T19:18:57.693Z,68.50
2023-01-30T19:21:25.836Z,67.30
2023-01-30T19:23:53.498Z,67.70
2023-01-30T19:26:22.535Z,67.20
2023-01-30T19:28:49.805Z,68.00
2023-01-30T19:31:18.672Z,66.90
2023-01-30T19:33:48.193Z,68.00
2023-01-30T19:36:17.353Z,68.10
2023-01-30T19:38:45.631Z,68.40
2023-01-30T19:41:22.300Z,68.10
2023-01-30T19:43:49.654Z,69.40
2023-01-30T19:46:16.527Z,67.80
2023-01-30T19:48:44.746Z,67.30
2023-01-30T19:51:30.225Z,68.30
2023-01-30T19:54:15.174Z,69.70
2023-01-30T19:56:42.559Z,70.00
2023-01-30T19:59:12.692Z,67.90
2023-01-30T20:01:40.485Z,69.50
2023-01-30T20:04:07.569Z,68.00
2023-01-30T20:06:36.162Z,68.20
2023-01-30T20:09:11.232Z,69.10
2023-01-30T20:11:40.238Z,69.70
2023-01-30T20:14:08.016Z,69.10
2023-01-30T20:16:35.853Z,68.30
2023-01-30T20:19:05.833Z,68.50
2023-01-30T20:21:33.536Z,69.50
2023-01-30T20:24:00.994Z,68.80
2023-01-30T20:26:35.110Z,68.90
2023-01-30T20:29:03.793Z,69.70
2023-01-30T20:31:31.326Z,69.40
2023-01-30T20:34:04.336Z,69.00
2023-01-30T20:36:31.254Z,70.50
2023-01-30T20:39:01.999Z,68.70
2023-01-30T20:41:28.893Z,70.00
2023-01-30T20:44:00.539Z,68.70
2023-01-30T20:46:34.812Z,69.90
2023-01-30T20:49:01.672Z,69.70
2023-01-30T20:51:31.118Z,68.90
2023-01-30T20:54:04.182Z,70.30
2023-01-30T20:56:33.542Z,71.10
2023-01-30T20:59:02.382Z,71.40
2023-01-30T21:01:29.574Z,70.20
2023-01-30T21:03:56.908Z,69.40
2023-01-30T21:06:41.858Z,69.50
2023-01-30T21:09:20.245Z,70.40
2023-01-30T21:11:48.126Z,71.10
2023-01-30T21:14:16.303Z,69.60
2023-01-30T21:16:43.593Z,69.90
2023-01-30T21:19:13.894Z,69.00
2023-01-30T21:21:50.394Z,69.90
2023-01-30T21:24:20.981Z,70.70
2023-01-30T21:26:48.113Z,70.30
2023-01-30T21:29:17.309Z,69.10
2023-01-30T21:31:45.266Z,70.30
2023-01-30T21:34:13.085Z,69.70
2023-01-30T21:36:40.328Z,69.60
2023-01-30T21:39:26.075Z,69.10
2023-01-30T21:42:11.495Z,69.10
2023-01-30T21:44:38.341Z,68.90
2023-01-30T21:47:06.452Z,69.20
2023-01-30T21:49:34.062Z,70.00
2023-01-30T21:52:00.860Z,69.70
2023-01-30T21:54:27.550Z,69.00
2023-01-30T21:56:54.414Z,69.10
2023-01-30T21:59:21.274Z,69.10
2023-01-30T22:01:48.506Z,69.30
2023-01-30T22:04:15.678Z,68.80
2023-01-30T22:06:43.327Z,69.10
2023-01-30T22:09:13.666Z,69.40
2023-01-30T22:11:40.779Z,70.00
2023-01-30T22:14:07.517Z,68.60
2023-01-30T22:16:34.362Z,68.10
2023-01-30T22:19:03.643Z,68.10
2023-01-30T22:21:33.777Z,69.40
2023-01-30T22:24:01.821Z,69.10
2023-01-30T22:26:29.205Z,68.70
2023-01-30T22:28:58.037Z,68.20
2023-01-30T22:31:27.589Z,68.80
2023-01-30T22:33:55.655Z,69.30
2023-01-30T22:36:28.411Z,69.10
2023-01-30T22:38:55.433Z,70.70
2023-01-30T22:41:23.964Z,68.80
2023-01-30T22:43:51.777Z,69.90
2023-01-30T22:46:19.441Z,69.20
2023-01-30T22:48:46.701Z,70.40
2023-01-30T22:51:20.363Z,69.80
2023-01-30T22:53:55.846Z,71.10
2023-01-30T22:56:26.137Z,72.10
2023-01-30T22:58:53.633Z,71.50
2023-01-30T23:01:30.676Z,70.80
2023-01-30T23:04:28.127Z,72.00
2023-01-30T23:06:56.327Z,71.50
2023-01-30T23:09:23.921Z,69.90
2023-01-30T23:12:13.322Z,70.60
2023-01-30T23:14:42.267Z,71.60
2023-01-30T23:17:28.164Z,70.60
2023-01-30T23:19:55.247Z,70.10
2023-01-30T23:22:22.517Z,70.00
2023-01-30T23:24:50.992Z,70.00
2023-01-30T23:27:17.813Z,69.60
2023-01-30T23:29:44.553Z,69.60
2023-01-30T23:32:11.263Z,69.60
2023-01-30T23:34:38.094Z,69.70
2023-01-30T23:37:04.864Z,69.70
2023-01-30T23:39:31.614Z,69.60
2023-01-30T23:41:58.338Z,69.70
2023-01-30T23:44:25.117Z,69.80
2023-01-30T23:46:52.504Z,69.90
2023-01-30T23:49:19.238Z,69.80
2023-01-30T23:51:46.046Z,69.60
2023-01-30T23:54:14.104Z,69.40
2023-01-30T23:56:43.076Z,70.40
2023-01-30T23:59:10.933Z,70.60
